sensor_id;sensor_type;location;lat;lon;timestamp;pressure;altitude;pressure_sealevel;temperature;humidity
68141;BME280;54941;52.220;104.306;2023-11-21T00:02:05;96740.22;;;-6.01;62.63
68141;BME280;54941;52.220;104.306;2023-11-21T00:04:32;96740.22;;;-6.19;63.46
68141;BME280;54941;52.220;104.306;2023-11-21T00:06:59;96734.50;;;-6.13;62.49
68141;BME280;54941;52.220;104.306;2023-11-21T00:09:26;96743.56;;;-6.38;62.55
68141;BME280;54941;52.220;104.306;2023-11-21T00:11:52;96747.81;;;-6.38;62.97
68141;BME280;54941;52.220;104.306;2023-11-21T00:14:19;96744.91;;;-6.28;62.48
68141;BME280;54941;52.220;104.306;2023-11-21T00:16:45;96738.22;;;-6.42;63.00
68141;BME280;54941;52.220;104.306;2023-11-21T00:19:12;96737.25;;;-6.27;61.97
68141;BME280;54941;52.220;104.306;2023-11-21T00:21:38;96740.34;;;-6.16;61.95
68141;BME280;54941;52.220;104.306;2023-11-21T00:24:07;96752.81;;;-6.41;62.45
68141;BME280;54941;52.220;104.306;2023-11-21T00:26:33;96747.00;;;-6.37;62.55
68141;BME280;54941;52.220;104.306;2023-11-21T00:29:00;96752.13;;;-6.21;62.16
68141;BME280;54941;52.220;104.306;2023-11-21T00:31:26;96764.63;;;-6.11;62.43
68141;BME280;54941;52.220;104.306;2023-11-21T00:33:53;96775.09;;;-6.06;62.59
68141;BME280;54941;52.220;104.306;2023-11-21T00:36:19;96778.78;;;-6.19;62.56
68141;BME280;54941;52.220;104.306;2023-11-21T00:38:45;96780.41;;;-6.21;62.57
68141;BME280;54941;52.220;104.306;2023-11-21T00:41:13;96774.59;;;-6.17;64.06
68141;BME280;54941;52.220;104.306;2023-11-21T00:43:40;96785.03;;;-5.96;63.31
68141;BME280;54941;52.220;104.306;2023-11-21T00:46:06;96781.94;;;-6.07;63.56
68141;BME280;54941;52.220;104.306;2023-11-21T00:48:33;96786.53;;;-6.01;63.02
68141;BME280;54941;52.220;104.306;2023-11-21T00:50:59;96790.00;;;-6.17;63.75
68141;BME280;54941;52.220;104.306;2023-11-21T00:53:26;96792.09;;;-6.10;63.06
68141;BME280;54941;52.220;104.306;2023-11-21T00:55:52;96778.19;;;-5.96;62.53
68141;BME280;54941;52.220;104.306;2023-11-21T00:58:20;96781.94;;;-6.07;63.67
68141;BME280;54941;52.220;104.306;2023-11-21T01:00:47;96784.44;;;-5.91;62.98
68141;BME280;54941;52.220;104.306;2023-11-21T01:03:13;96781.47;;;-5.80;63.45
68141;BME280;54941;52.220;104.306;2023-11-21T01:05:39;96783.91;;;-5.66;61.92
68141;BME280;54941;52.220;104.306;2023-11-21T01:08:06;96785.59;;;-5.66;61.73
68141;BME280;54941;52.220;104.306;2023-11-21T01:10:32;96788.75;;;-5.90;62.50
68141;BME280;54941;52.220;104.306;2023-11-21T01:12:58;96781.81;;;-6.10;62.46
68141;BME280;54941;52.220;104.306;2023-11-21T01:15:26;96785.19;;;-6.11;62.68
68141;BME280;54941;52.220;104.306;2023-11-21T01:17:53;96781.28;;;-6.03;62.45
68141;BME280;54941;52.220;104.306;2023-11-21T01:20:19;96782.41;;;-5.61;61.14
68141;BME280;54941;52.220;104.306;2023-11-21T01:22:45;96784.41;;;-5.73;61.31
68141;BME280;54941;52.220;104.306;2023-11-21T01:25:12;96805.00;;;-5.55;61.34
68141;BME280;54941;52.220;104.306;2023-11-21T01:27:38;96805.72;;;-5.75;62.18
68141;BME280;54941;52.220;104.306;2023-11-21T01:30:05;96806.59;;;-5.57;61.60
68141;BME280;54941;52.220;104.306;2023-11-21T01:32:33;96807.31;;;-5.42;61.08
68141;BME280;54941;52.220;104.306;2023-11-21T01:35:00;96806.84;;;-5.33;60.92
68141;BME280;54941;52.220;104.306;2023-11-21T01:37:26;96814.69;;;-5.12;60.39
68141;BME280;54941;52.220;104.306;2023-11-21T01:39:53;96818.19;;;-5.47;60.64
68141;BME280;54941;52.220;104.306;2023-11-21T01:42:19;96821.09;;;-5.22;60.74
68141;BME280;54941;52.220;104.306;2023-11-21T01:44:46;96819.88;;;-5.30;60.45
68141;BME280;54941;52.220;104.306;2023-11-21T01:47:13;96822.72;;;-5.24;60.60
68141;BME280;54941;52.220;104.306;2023-11-21T01:49:46;96819.06;;;-5.29;61.21
68141;BME280;54941;52.220;104.306;2023-11-21T01:52:13;96831.50;;;-5.20;60.09
68141;BME280;54941;52.220;104.306;2023-11-21T01:54:41;96835.28;;;-5.49;61.85
68141;BME280;54941;52.220;104.306;2023-11-21T01:57:07;96838.78;;;-5.30;60.97
68141;BME280;54941;52.220;104.306;2023-11-21T01:59:35;96844.00;;;-5.46;61.45
68141;BME280;54941;52.220;104.306;2023-11-21T02:02:02;96845.94;;;-5.60;62.09
68141;BME280;54941;52.220;104.306;2023-11-21T02:04:28;96848.06;;;-5.87;63.13
68141;BME280;54941;52.220;104.306;2023-11-21T02:06:56;96864.63;;;-5.64;63.38
68141;BME280;54941;52.220;104.306;2023-11-21T02:09:25;96868.16;;;-5.44;62.57
68141;BME280;54941;52.220;104.306;2023-11-21T02:11:51;96865.44;;;-5.10;61.91
68141;BME280;54941;52.220;104.306;2023-11-21T02:14:18;96881.06;;;-5.24;61.83
68141;BME280;54941;52.220;104.306;2023-11-21T02:16:44;96890.44;;;-5.62;62.84
68141;BME280;54941;52.220;104.306;2023-11-21T02:19:11;96883.38;;;-5.66;64.00
68141;BME280;54941;52.220;104.306;2023-11-21T02:21:41;96883.75;;;-5.41;63.08
68141;BME280;54941;52.220;104.306;2023-11-21T02:24:09;96884.91;;;-5.88;64.75
68141;BME280;54941;52.220;104.306;2023-11-21T02:26:36;96876.53;;;-5.66;64.66
68141;BME280;54941;52.220;104.306;2023-11-21T02:29:02;96869.16;;;-5.58;64.87
68141;BME280;54941;52.220;104.306;2023-11-21T02:31:28;96858.94;;;-5.57;64.45
68141;BME280;54941;52.220;104.306;2023-11-21T02:33:55;96868.00;;;-5.47;64.42
68141;BME280;54941;52.220;104.306;2023-11-21T02:36:21;96854.38;;;-5.26;64.18
68141;BME280;54941;52.220;104.306;2023-11-21T02:38:48;96856.06;;;-5.27;64.26
68141;BME280;54941;52.220;104.306;2023-11-21T02:41:15;96862.28;;;-5.04;63.66
68141;BME280;54941;52.220;104.306;2023-11-21T02:43:42;96860.19;;;-4.93;63.07
68141;BME280;54941;52.220;104.306;2023-11-21T02:46:09;96860.06;;;-4.96;63.08
68141;BME280;54941;52.220;104.306;2023-11-21T02:48:35;96863.47;;;-5.15;64.05
68141;BME280;54941;52.220;104.306;2023-11-21T02:51:01;96849.34;;;-4.67;62.62
68141;BME280;54941;52.220;104.306;2023-11-21T02:53:28;96848.28;;;-4.72;62.92
68141;BME280;54941;52.220;104.306;2023-11-21T02:55:54;96857.16;;;-5.22;64.58
68141;BME280;54941;52.220;104.306;2023-11-21T02:58:22;96855.81;;;-5.14;64.55
68141;BME280;54941;52.220;104.306;2023-11-21T03:00:48;96850.09;;;-5.26;65.16
68141;BME280;54941;52.220;104.306;2023-11-21T03:03:15;96849.41;;;-5.41;65.99
68141;BME280;54941;52.220;104.306;2023-11-21T03:05:41;96865.34;;;-5.31;65.80
68141;BME280;54941;52.220;104.306;2023-11-21T03:08:07;96881.34;;;-5.55;67.51
68141;BME280;54941;52.220;104.306;2023-11-21T03:10:34;96894.50;;;-5.67;68.83
68141;BME280;54941;52.220;104.306;2023-11-21T03:13:00;96893.72;;;-5.47;68.13
68141;BME280;54941;52.220;104.306;2023-11-21T03:15:28;96899.25;;;-5.57;68.37
68141;BME280;54941;52.220;104.306;2023-11-21T03:17:55;96891.69;;;-5.54;69.30
68141;BME280;54941;52.220;104.306;2023-11-21T03:20:21;96896.91;;;-5.52;69.19
68141;BME280;54941;52.220;104.306;2023-11-21T03:22:47;96909.69;;;-5.72;70.35
68141;BME280;54941;52.220;104.306;2023-11-21T03:25:14;96906.91;;;-5.59;69.92
68141;BME280;54941;52.220;104.306;2023-11-21T03:27:41;96904.31;;;-5.59;69.50
68141;BME280;54941;52.220;104.306;2023-11-21T03:30:08;96901.50;;;-5.81;70.09
68141;BME280;54941;52.220;104.306;2023-11-21T03:32:36;96907.09;;;-5.72;70.34
68141;BME280;54941;52.220;104.306;2023-11-21T03:35:03;96907.72;;;-5.42;69.03
68141;BME280;54941;52.220;104.306;2023-11-21T03:37:30;96910.00;;;-5.30;68.92
68141;BME280;54941;52.220;104.306;2023-11-21T03:39:56;96900.34;;;-5.16;68.55
68141;BME280;54941;52.220;104.306;2023-11-21T03:42:23;96897.53;;;-5.03;67.62
68141;BME280;54941;52.220;104.306;2023-11-21T03:44:49;96889.94;;;-5.00;67.70
68141;BME280;54941;52.220;104.306;2023-11-21T03:47:16;96881.91;;;-4.69;66.44
68141;BME280;54941;52.220;104.306;2023-11-21T03:49:44;96876.97;;;-4.45;65.58
68141;BME280;54941;52.220;104.306;2023-11-21T03:52:10;96870.88;;;-4.47;65.76
68141;BME280;54941;52.220;104.306;2023-11-21T03:54:36;96859.03;;;-4.23;66.12
68141;BME280;54941;52.220;104.306;2023-11-21T03:57:03;96870.19;;;-4.43;66.03
68141;BME280;54941;52.220;104.306;2023-11-21T03:59:30;96860.94;;;-3.98;64.91
68141;BME280;54941;52.220;104.306;2023-11-21T04:01:56;96870.31;;;-4.40;66.40
68141;BME280;54941;52.220;104.306;2023-11-21T04:04:23;96865.84;;;-4.25;66.40
68141;BME280;54941;52.220;104.306;2023-11-21T04:06:50;96872.75;;;-4.24;66.27
68141;BME280;54941;52.220;104.306;2023-11-21T04:09:20;96880.25;;;-4.49;67.91
68141;BME280;54941;52.220;104.306;2023-11-21T04:11:46;96886.41;;;-4.46;68.01
68141;BME280;54941;52.220;104.306;2023-11-21T04:14:13;96883.19;;;-4.40;68.29
68141;BME280;54941;52.220;104.306;2023-11-21T04:16:40;96894.13;;;-4.46;68.23
68141;BME280;54941;52.220;104.306;2023-11-21T04:19:07;96896.44;;;-5.08;70.24
68141;BME280;54941;52.220;104.306;2023-11-21T04:21:33;96886.66;;;-4.78;69.74
68141;BME280;54941;52.220;104.306;2023-11-21T04:24:01;96887.06;;;-4.69;69.54
68141;BME280;54941;52.220;104.306;2023-11-21T04:26:27;96890.47;;;-4.70;69.33
68141;BME280;54941;52.220;104.306;2023-11-21T04:28:54;96891.06;;;-4.76;69.20
68141;BME280;54941;52.220;104.306;2023-11-21T04:31:22;96901.28;;;-4.96;70.09
68141;BME280;54941;52.220;104.306;2023-11-21T04:33:48;96889.94;;;-5.00;70.54
68141;BME280;54941;52.220;104.306;2023-11-21T04:36:15;96895.53;;;-4.91;70.48
68141;BME280;54941;52.220;104.306;2023-11-21T04:38:41;96875.34;;;-4.43;68.46
68141;BME280;54941;52.220;104.306;2023-11-21T04:41:09;96886.41;;;-4.84;69.86
68141;BME280;54941;52.220;104.306;2023-11-21T04:43:35;96886.97;;;-4.90;70.29
68141;BME280;54941;52.220;104.306;2023-11-21T04:46:02;96893.13;;;-4.68;68.64
68141;BME280;54941;52.220;104.306;2023-11-21T04:48:28;96896.22;;;-4.76;68.41
68141;BME280;54941;52.220;104.306;2023-11-21T04:50:55;96908.56;;;-4.68;68.67
68141;BME280;54941;52.220;104.306;2023-11-21T04:53:21;96910.41;;;-4.08;67.13
68141;BME280;54941;52.220;104.306;2023-11-21T04:55:47;96912.41;;;-3.82;65.31
68141;BME280;54941;52.220;104.306;2023-11-21T04:58:15;96909.41;;;-4.12;66.16
68141;BME280;54941;52.220;104.306;2023-11-21T05:00:42;96910.91;;;-4.17;63.95
68141;BME280;54941;52.220;104.306;2023-11-21T05:03:09;96898.06;;;-4.15;63.43
68141;BME280;54941;52.220;104.306;2023-11-21T05:05:35;96901.41;;;-4.37;63.36
68141;BME280;54941;52.220;104.306;2023-11-21T05:08:02;96901.66;;;-4.31;62.37
68141;BME280;54941;52.220;104.306;2023-11-21T05:10:28;96906.09;;;-3.88;63.28
68141;BME280;54941;52.220;104.306;2023-11-21T05:12:55;96906.16;;;-3.87;63.92
68141;BME280;54941;52.220;104.306;2023-11-21T05:15:23;96913.22;;;-4.23;63.88
68141;BME280;54941;52.220;104.306;2023-11-21T05:17:49;96911.56;;;-4.21;63.41
68141;BME280;54941;52.220;104.306;2023-11-21T05:20:16;96914.97;;;-4.41;63.80
68141;BME280;54941;52.220;104.306;2023-11-21T05:22:42;96916.66;;;-4.22;61.36
68141;BME280;54941;52.220;104.306;2023-11-21T05:25:08;96911.50;;;-4.22;61.25
68141;BME280;54941;52.220;104.306;2023-11-21T05:27:35;96909.94;;;-4.19;61.75
68141;BME280;54941;52.220;104.306;2023-11-21T05:30:02;96914.16;;;-4.21;62.88
68141;BME280;54941;52.220;104.306;2023-11-21T05:32:32;96906.28;;;-4.04;62.79
68141;BME280;54941;52.220;104.306;2023-11-21T05:34:59;96908.03;;;-4.03;62.35
68141;BME280;54941;52.220;104.306;2023-11-21T05:37:25;96918.97;;;-4.09;61.71
68141;BME280;54941;52.220;104.306;2023-11-21T05:39:52;96918.56;;;-4.18;61.90
68141;BME280;54941;52.220;104.306;2023-11-21T05:42:19;96916.06;;;-4.17;62.62
68141;BME280;54941;52.220;104.306;2023-11-21T05:44:45;96906.53;;;-3.98;61.92
68141;BME280;54941;52.220;104.306;2023-11-21T05:47:14;96914.53;;;-3.71;61.21
68141;BME280;54941;52.220;104.306;2023-11-21T05:50:11;96914.03;;;-3.84;60.28
68141;BME280;54941;52.220;104.306;2023-11-21T05:52:38;96913.50;;;-3.96;60.90
68141;BME280;54941;52.220;104.306;2023-11-21T05:55:05;96914.06;;;-4.03;60.54
68141;BME280;54941;52.220;104.306;2023-11-21T05:57:32;96921.75;;;-4.04;60.49
68141;BME280;54941;52.220;104.306;2023-11-21T05:59:58;96929.16;;;-4.12;60.97
68141;BME280;54941;52.220;104.306;2023-11-21T06:02:25;96934.31;;;-4.31;61.77
68141;BME280;54941;52.220;104.306;2023-11-21T06:04:51;96936.34;;;-4.24;61.34
68141;BME280;54941;52.220;104.306;2023-11-21T06:07:19;96940.91;;;-4.38;61.46
68141;BME280;54941;52.220;104.306;2023-11-21T06:09:45;96941.22;;;-4.30;61.93
68141;BME280;54941;52.220;104.306;2023-11-21T06:12:12;96942.28;;;-4.27;61.95
68141;BME280;54941;52.220;104.306;2023-11-21T06:14:40;96951.91;;;-4.23;61.18
68141;BME280;54941;52.220;104.306;2023-11-21T06:17:06;96952.91;;;-4.19;62.45
68141;BME280;54941;52.220;104.306;2023-11-21T06:19:32;96945.63;;;-4.08;63.03
68141;BME280;54941;52.220;104.306;2023-11-21T06:21:59;96949.25;;;-4.05;62.74
68141;BME280;54941;52.220;104.306;2023-11-21T06:24:27;96941.09;;;-4.14;63.36
68141;BME280;54941;52.220;104.306;2023-11-21T06:26:53;96943.00;;;-4.29;63.47
68141;BME280;54941;52.220;104.306;2023-11-21T06:29:19;96940.13;;;-3.97;62.59
68141;BME280;54941;52.220;104.306;2023-11-21T06:31:46;96946.56;;;-3.87;62.71
68141;BME280;54941;52.220;104.306;2023-11-21T06:34:12;96961.47;;;-4.01;63.79
68141;BME280;54941;52.220;104.306;2023-11-21T06:36:39;96967.50;;;-4.39;65.17
68141;BME280;54941;52.220;104.306;2023-11-21T06:39:05;96968.16;;;-4.43;65.74
68141;BME280;54941;52.220;104.306;2023-11-21T06:41:38;96974.28;;;-4.22;64.74
68141;BME280;54941;52.220;104.306;2023-11-21T06:44:06;96970.66;;;-4.27;64.76
68141;BME280;54941;52.220;104.306;2023-11-21T06:46:33;96974.03;;;-4.28;64.13
68141;BME280;54941;52.220;104.306;2023-11-21T06:48:59;96984.63;;;-4.22;64.26
68141;BME280;54941;52.220;104.306;2023-11-21T06:51:26;96983.78;;;-4.40;63.11
68141;BME280;54941;52.220;104.306;2023-11-21T06:53:52;96982.56;;;-4.29;61.72
68141;BME280;54941;52.220;104.306;2023-11-21T06:56:19;96981.50;;;-4.34;62.32
68141;BME280;54941;52.220;104.306;2023-11-21T06:58:47;96990.16;;;-4.51;63.96
68141;BME280;54941;52.220;104.306;2023-11-21T07:01:13;96984.63;;;-4.22;64.29
68141;BME280;54941;52.220;104.306;2023-11-21T07:03:39;96989.69;;;-4.43;66.84
68141;BME280;54941;52.220;104.306;2023-11-21T07:06:06;96990.31;;;-4.09;67.06
68141;BME280;54941;52.220;104.306;2023-11-21T07:08:33;97002.75;;;-4.39;69.18
68141;BME280;54941;52.220;104.306;2023-11-21T07:10:59;97001.13;;;-4.55;70.88
68141;BME280;54941;52.220;104.306;2023-11-21T07:13:26;97006.41;;;-4.72;71.69
68141;BME280;54941;52.220;104.306;2023-11-21T07:15:54;97004.88;;;-4.49;72.05
68141;BME280;54941;52.220;104.306;2023-11-21T07:18:20;97006.59;;;-4.67;73.20
68141;BME280;54941;52.220;104.306;2023-11-21T07:20:46;97011.09;;;-4.81;74.50
68141;BME280;54941;52.220;104.306;2023-11-21T07:23:13;97015.38;;;-4.81;74.10
68141;BME280;54941;52.220;104.306;2023-11-21T07:25:42;97017.00;;;-5.01;74.46
68141;BME280;54941;52.220;104.306;2023-11-21T07:28:08;97020.66;;;-5.14;74.68
68141;BME280;54941;52.220;104.306;2023-11-21T07:30:35;97025.91;;;-4.94;74.12
68141;BME280;54941;52.220;104.306;2023-11-21T07:33:03;97049.28;;;-5.25;76.91
68141;BME280;54941;52.220;104.306;2023-11-21T07:35:29;97051.81;;;-5.77;80.22
68141;BME280;54941;52.220;104.306;2023-11-21T07:37:55;97047.72;;;-5.56;80.10
68141;BME280;54941;52.220;104.306;2023-11-21T07:40:22;97050.72;;;-5.81;80.83
68141;BME280;54941;52.220;104.306;2023-11-21T07:42:48;97051.94;;;-5.74;80.70
68141;BME280;54941;52.220;104.306;2023-11-21T07:45:15;97069.47;;;-5.83;80.75
68141;BME280;54941;52.220;104.306;2023-11-21T07:47:41;97083.31;;;-6.14;82.22
68141;BME280;54941;52.220;104.306;2023-11-21T07:50:10;97074.97;;;-6.10;82.76
68141;BME280;54941;52.220;104.306;2023-11-21T07:52:36;97075.63;;;-5.98;82.54
68141;BME280;54941;52.220;104.306;2023-11-21T07:55:03;97074.63;;;-5.83;81.57
68141;BME280;54941;52.220;104.306;2023-11-21T07:57:31;97079.69;;;-5.52;79.37
68141;BME280;54941;52.220;104.306;2023-11-21T07:59:57;97080.06;;;-5.45;77.84
68141;BME280;54941;52.220;104.306;2023-11-21T08:02:23;97088.03;;;-5.40;76.45
68141;BME280;54941;52.220;104.306;2023-11-21T08:04:50;97095.53;;;-5.77;75.16
68141;BME280;54941;52.220;104.306;2023-11-21T08:07:19;97111.78;;;-5.95;73.92
68141;BME280;54941;52.220;104.306;2023-11-21T08:09:45;97109.81;;;-6.31;74.57
68141;BME280;54941;52.220;104.306;2023-11-21T08:12:11;97116.41;;;-6.36;74.21
68141;BME280;54941;52.220;104.306;2023-11-21T08:14:38;97122.59;;;-6.33;73.32
68141;BME280;54941;52.220;104.306;2023-11-21T08:17:04;97127.72;;;-6.33;72.82
68141;BME280;54941;52.220;104.306;2023-11-21T08:19:30;97131.81;;;-6.36;72.87
68141;BME280;54941;52.220;104.306;2023-11-21T08:21:57;97136.84;;;-6.38;71.69
68141;BME280;54941;52.220;104.306;2023-11-21T08:24:25;97140.28;;;-6.54;72.16
68141;BME280;54941;52.220;104.306;2023-11-21T08:26:51;97141.06;;;-6.55;70.82
68141;BME280;54941;52.220;104.306;2023-11-21T08:29:17;97135.28;;;-6.51;69.19
68141;BME280;54941;52.220;104.306;2023-11-21T08:31:44;97147.47;;;-6.63;68.79
68141;BME280;54941;52.220;104.306;2023-11-21T08:34:10;97152.00;;;-6.59;68.25
68141;BME280;54941;52.220;104.306;2023-11-21T08:36:41;97156.31;;;-6.72;67.86
68141;BME280;54941;52.220;104.306;2023-11-21T08:39:08;97161.91;;;-6.65;66.65
68141;BME280;54941;52.220;104.306;2023-11-21T08:41:35;97172.28;;;-6.63;66.22
68141;BME280;54941;52.220;104.306;2023-11-21T08:44:02;97178.50;;;-6.60;65.56
68141;BME280;54941;52.220;104.306;2023-11-21T08:46:29;97181.66;;;-6.64;65.37
68141;BME280;54941;52.220;104.306;2023-11-21T08:48:55;97180.69;;;-6.66;64.79
68141;BME280;54941;52.220;104.306;2023-11-21T08:51:21;97182.72;;;-6.75;66.16
68141;BME280;54941;52.220;104.306;2023-11-21T08:53:48;97189.03;;;-6.70;66.39
68141;BME280;54941;52.220;104.306;2023-11-21T08:56:14;97194.97;;;-6.71;66.45
68141;BME280;54941;52.220;104.306;2023-11-21T08:58:42;97203.38;;;-6.59;65.54
68141;BME280;54941;52.220;104.306;2023-11-21T09:01:09;97200.91;;;-6.57;65.09
68141;BME280;54941;52.220;104.306;2023-11-21T09:03:35;97211.34;;;-6.54;66.00
68141;BME280;54941;52.220;104.306;2023-11-21T09:06:01;97215.88;;;-6.35;65.08
68141;BME280;54941;52.220;104.306;2023-11-21T09:08:28;97222.06;;;-6.47;64.86
68141;BME280;54941;52.220;104.306;2023-11-21T09:10:54;97214.97;;;-6.51;64.37
68141;BME280;54941;52.220;104.306;2023-11-21T09:13:21;97228.78;;;-6.49;64.67
68141;BME280;54941;52.220;104.306;2023-11-21T09:15:49;97233.50;;;-6.56;65.34
68141;BME280;54941;52.220;104.306;2023-11-21T09:18:15;97231.75;;;-6.57;65.68
68141;BME280;54941;52.220;104.306;2023-11-21T09:20:42;97246.00;;;-6.62;66.37
68141;BME280;54941;52.220;104.306;2023-11-21T09:23:08;97249.34;;;-6.49;66.11
68141;BME280;54941;52.220;104.306;2023-11-21T09:25:35;97265.56;;;-6.50;65.74
68141;BME280;54941;52.220;104.306;2023-11-21T09:28:01;97264.69;;;-6.80;66.64
68141;BME280;54941;52.220;104.306;2023-11-21T09:30:27;97268.06;;;-6.66;67.14
68141;BME280;54941;52.220;104.306;2023-11-21T09:32:55;97275.16;;;-6.47;65.33
68141;BME280;54941;52.220;104.306;2023-11-21T09:35:21;97281.63;;;-6.39;64.70
68141;BME280;54941;52.220;104.306;2023-11-21T09:37:51;97281.44;;;-6.57;62.89
68141;BME280;54941;52.220;104.306;2023-11-21T09:40:21;97292.88;;;-6.52;62.69
68141;BME280;54941;52.220;104.306;2023-11-21T09:42:51;97305.97;;;-6.62;61.14
68141;BME280;54941;52.220;104.306;2023-11-21T09:45:23;97304.66;;;-6.70;59.89
68141;BME280;54941;52.220;104.306;2023-11-21T09:47:52;97298.00;;;-6.52;60.31
68141;BME280;54941;52.220;104.306;2023-11-21T09:50:20;97316.63;;;-6.56;59.16
68141;BME280;54941;52.220;104.306;2023-11-21T09:52:54;97317.44;;;-6.57;59.05
68141;BME280;54941;52.220;104.306;2023-11-21T09:55:21;97323.53;;;-6.40;58.44
68141;BME280;54941;52.220;104.306;2023-11-21T09:57:48;97326.44;;;-6.63;58.50
68141;BME280;54941;52.220;104.306;2023-11-21T10:00:15;97337.41;;;-6.81;58.94
68141;BME280;54941;52.220;104.306;2023-11-21T10:02:42;97340.03;;;-6.94;58.66
68141;BME280;54941;52.220;104.306;2023-11-21T10:05:08;97342.63;;;-6.79;58.92
68141;BME280;54941;52.220;104.306;2023-11-21T10:07:36;97344.31;;;-6.80;58.51
68141;BME280;54941;52.220;104.306;2023-11-21T10:10:06;97362.41;;;-6.78;59.47
68141;BME280;54941;52.220;104.306;2023-11-21T10:12:33;97374.91;;;-6.97;61.83
68141;BME280;54941;52.220;104.306;2023-11-21T10:15:03;97390.53;;;-7.08;63.79
68141;BME280;54941;52.220;104.306;2023-11-21T10:17:32;97393.78;;;-7.38;65.67
68141;BME280;54941;52.220;104.306;2023-11-21T10:20:01;97410.94;;;-7.37;66.24
68141;BME280;54941;52.220;104.306;2023-11-21T10:22:30;97416.16;;;-7.22;66.63
68141;BME280;54941;52.220;104.306;2023-11-21T10:24:57;97419.00;;;-7.31;70.49
68141;BME280;54941;52.220;104.306;2023-11-21T10:27:27;97425.25;;;-7.54;71.91
68141;BME280;54941;52.220;104.306;2023-11-21T10:29:53;97438.16;;;-7.66;72.75
68141;BME280;54941;52.220;104.306;2023-11-21T10:32:20;97456.09;;;-7.92;75.29
68141;BME280;54941;52.220;104.306;2023-11-21T10:34:56;97454.53;;;-7.90;75.56
68141;BME280;54941;52.220;104.306;2023-11-21T10:37:22;97465.19;;;-7.84;75.91
68141;BME280;54941;52.220;104.306;2023-11-21T10:39:48;97470.88;;;-7.88;76.60
68141;BME280;54941;52.220;104.306;2023-11-21T10:42:18;97473.34;;;-8.03;76.86
68141;BME280;54941;52.220;104.306;2023-11-21T10:44:46;97485.16;;;-8.05;77.30
68141;BME280;54941;52.220;104.306;2023-11-21T10:47:12;97484.00;;;-7.97;77.30
68141;BME280;54941;52.220;104.306;2023-11-21T10:49:40;97496.84;;;-8.21;79.56
68141;BME280;54941;52.220;104.306;2023-11-21T10:52:06;97504.22;;;-8.26;80.73
68141;BME280;54941;52.220;104.306;2023-11-21T10:54:33;97509.72;;;-8.08;80.55
68141;BME280;54941;52.220;104.306;2023-11-21T10:57:00;97513.72;;;-8.12;79.68
68141;BME280;54941;52.220;104.306;2023-11-21T10:59:30;97535.31;;;-8.21;78.62
68141;BME280;54941;52.220;104.306;2023-11-21T11:01:57;97531.97;;;-8.20;79.49
68141;BME280;54941;52.220;104.306;2023-11-21T11:04:25;97541.16;;;-8.36;80.37
68141;BME280;54941;52.220;104.306;2023-11-21T11:06:56;97544.97;;;-8.17;80.07
68141;BME280;54941;52.220;104.306;2023-11-21T11:09:23;97553.06;;;-8.61;81.48
68141;BME280;54941;52.220;104.306;2023-11-21T11:11:51;97556.56;;;-8.47;80.27
68141;BME280;54941;52.220;104.306;2023-11-21T11:14:19;97560.25;;;-8.44;78.88
68141;BME280;54941;52.220;104.306;2023-11-21T11:16:47;97568.41;;;-8.49;78.29
68141;BME280;54941;52.220;104.306;2023-11-21T11:19:15;97578.38;;;-8.77;79.69
68141;BME280;54941;52.220;104.306;2023-11-21T11:21:48;97583.34;;;-8.56;79.05
68141;BME280;54941;52.220;104.306;2023-11-21T11:24:45;97595.84;;;-8.72;76.78
68141;BME280;54941;52.220;104.306;2023-11-21T11:27:22;97591.13;;;-8.42;74.47
68141;BME280;54941;52.220;104.306;2023-11-21T11:30:00;97605.16;;;-8.61;72.35
68141;BME280;54941;52.220;104.306;2023-11-21T11:32:43;97602.06;;;-8.68;70.90
68141;BME280;54941;52.220;104.306;2023-11-21T11:35:19;97614.66;;;-8.71;70.58
68141;BME280;54941;52.220;104.306;2023-11-21T11:37:49;97613.53;;;-8.63;68.48
68141;BME280;54941;52.220;104.306;2023-11-21T11:40:16;97620.41;;;-8.50;68.00
68141;BME280;54941;52.220;104.306;2023-11-21T11:42:56;97621.19;;;-8.51;65.39
68141;BME280;54941;52.220;104.306;2023-11-21T11:45:23;97637.78;;;-8.46;59.96
68141;BME280;54941;52.220;104.306;2023-11-21T11:47:56;97643.81;;;-8.58;55.22
68141;BME280;54941;52.220;104.306;2023-11-21T11:50:23;97657.88;;;-8.64;54.87
68141;BME280;54941;52.220;104.306;2023-11-21T11:52:50;97669.56;;;-8.68;52.15
68141;BME280;54941;52.220;104.306;2023-11-21T11:55:18;97650.59;;;-8.70;47.16
68141;BME280;54941;52.220;104.306;2023-11-21T11:57:46;97661.53;;;-8.84;45.30
68141;BME280;54941;52.220;104.306;2023-11-21T12:00:15;97667.75;;;-8.69;46.26
68141;BME280;54941;52.220;104.306;2023-11-21T12:02:44;97678.13;;;-8.79;45.79
68141;BME280;54941;52.220;104.306;2023-11-21T12:05:14;97684.38;;;-8.64;45.97
68141;BME280;54941;52.220;104.306;2023-11-21T12:07:44;97694.63;;;-8.75;46.54
68141;BME280;54941;52.220;104.306;2023-11-21T12:10:12;97678.56;;;-8.73;46.15
68141;BME280;54941;52.220;104.306;2023-11-21T12:12:42;97698.97;;;-8.63;45.72
68141;BME280;54941;52.220;104.306;2023-11-21T12:15:10;97691.47;;;-8.71;45.78
68141;BME280;54941;52.220;104.306;2023-11-21T12:17:37;97720.00;;;-8.90;44.96
68141;BME280;54941;52.220;104.306;2023-11-21T12:20:04;97711.16;;;-9.05;46.34
68141;BME280;54941;52.220;104.306;2023-11-21T12:22:32;97727.63;;;-9.14;46.36
68141;BME280;54941;52.220;104.306;2023-11-21T12:24:59;97731.28;;;-9.10;45.17
68141;BME280;54941;52.220;104.306;2023-11-21T12:27:25;97749.28;;;-9.20;46.68
68141;BME280;54941;52.220;104.306;2023-11-21T12:29:51;97752.91;;;-9.28;46.40
68141;BME280;54941;52.220;104.306;2023-11-21T12:32:18;97755.25;;;-9.31;46.93
68141;BME280;54941;52.220;104.306;2023-11-21T12:34:44;97766.88;;;-9.25;47.65
68141;BME280;54941;52.220;104.306;2023-11-21T12:37:11;97770.28;;;-9.36;47.72
68141;BME280;54941;52.220;104.306;2023-11-21T12:39:39;97783.75;;;-9.27;47.88
68141;BME280;54941;52.220;104.306;2023-11-21T12:42:05;97789.28;;;-9.32;48.66